createdAt,value
2017-12-09T00:00:46.203Z,2.90
2017-12-09T00:03:12.690Z,2.90
2017-12-09T00:05:39.960Z,2.90
2017-12-09T00:08:06.423Z,2.80
2017-12-09T00:10:34.393Z,2.70
2017-12-09T00:13:00.873Z,2.70
2017-12-09T00:15:27.493Z,2.70
2017-12-09T00:17:54.666Z,2.60
2017-12-09T00:20:21.143Z,2.70
2017-12-09T00:22:47.766Z,2.70
2017-12-09T00:25:14.284Z,2.70
2017-12-09T00:27:43.742Z,2.70
2017-12-09T00:30:10.223Z,2.70
2017-12-09T00:32:37.933Z,2.80
2017-12-09T00:35:05.283Z,2.90
2017-12-09T00:37:32.473Z,2.90
2017-12-09T00:39:58.974Z,2.80
2017-12-09T00:42:27.038Z,2.90
2017-12-09T00:44:54.084Z,2.80
2017-12-09T00:47:21.281Z,2.70
2017-12-09T00:49:48.953Z,2.60
2017-12-09T00:52:16.034Z,2.60
2017-12-09T00:54:43.935Z,2.60
2017-12-09T00:57:10.260Z,2.60
2017-12-09T00:59:36.703Z,2.60
2017-12-09T01:02:03.054Z,2.60
2017-12-09T01:04:29.394Z,2.50
2017-12-09T01:06:55.772Z,2.40
2017-12-09T01:09:23.732Z,2.50
2017-12-09T01:11:50.213Z,2.50
2017-12-09T01:14:16.705Z,2.60
2017-12-09T01:16:55.366Z,2.70
2017-12-09T01:19:23.723Z,2.70
2017-12-09T01:21:50.160Z,2.60
2017-12-09T01:24:16.853Z,2.70
2017-12-09T01:26:44.171Z,2.60
2017-12-09T01:29:10.532Z,2.60
2017-12-09T01:31:37.913Z,2.60
2017-12-09T01:34:04.420Z,2.50
2017-12-09T01:36:31.454Z,2.60
2017-12-09T01:38:58.573Z,2.50
2017-12-09T01:41:26.243Z,2.50
2017-12-09T01:43:54.119Z,2.50
2017-12-09T01:46:20.736Z,2.40
2017-12-09T01:48:47.323Z,2.50
2017-12-09T01:51:14.544Z,2.30
2017-12-09T01:53:41.053Z,2.30
2017-12-09T01:56:07.360Z,2.30
2017-12-09T01:58:35.788Z,2.10
2017-12-09T02:01:03.003Z,2.00
2017-12-09T02:03:29.483Z,2.00
2017-12-09T02:05:56.553Z,1.80
2017-12-09T02:08:23.104Z,1.80
2017-12-09T02:10:50.482Z,1.70
2017-12-09T02:13:17.031Z,1.60
2017-12-09T02:15:43.713Z,1.70
2017-12-09T02:18:10.296Z,1.50
2017-12-09T02:20:36.634Z,1.40
2017-12-09T02:23:02.981Z,1.30
2017-12-09T02:25:29.342Z,1.30
2017-12-09T02:27:55.872Z,1.20
2017-12-09T02:30:23.113Z,1.30
2017-12-09T02:32:50.422Z,1.30
2017-12-09T02:35:16.969Z,1.30
2017-12-09T02:37:43.491Z,1.30
2017-12-09T02:40:11.480Z,1.30
2017-12-09T02:42:37.953Z,1.30
2017-12-09T02:45:05.533Z,1.20
2017-12-09T02:47:32.006Z,1.20
2017-12-09T02:49:58.607Z,1.20
2017-12-09T02:52:25.660Z,1.20
2017-12-09T02:54:52.987Z,1.20
2017-12-09T02:57:19.521Z,1.30
2017-12-09T02:59:45.984Z,1.30
2017-12-09T03:02:12.674Z,1.30
2017-12-09T03:04:39.351Z,1.30
2017-12-09T03:07:08.675Z,1.40
2017-12-09T03:09:35.283Z,1.40
2017-12-09T03:12:01.815Z,1.50
2017-12-09T03:14:28.199Z,1.40
2017-12-09T03:16:55.297Z,1.40
2017-12-09T03:19:21.654Z,1.40
2017-12-09T03:21:48.306Z,1.40
2017-12-09T03:24:15.741Z,1.30
2017-12-09T03:26:42.970Z,1.20
2017-12-09T03:29:09.535Z,1.20
2017-12-09T03:31:36.022Z,1.30
2017-12-09T03:34:02.523Z,1.10
2017-12-09T03:36:30.111Z,0.90
2017-12-09T03:38:57.506Z,0.90
2017-12-09T03:41:25.228Z,0.90
2017-12-09T03:43:51.936Z,1.00
2017-12-09T03:46:19.334Z,1.00
2017-12-09T03:48:47.957Z,1.00
2017-12-09T03:51:16.141Z,0.90
2017-12-09T03:53:44.265Z,0.90
2017-12-09T03:56:10.732Z,1.00
2017-12-09T03:58:37.245Z,1.00
2017-12-09T04:01:03.786Z,1.00
2017-12-09T04:03:30.316Z,1.00
2017-12-09T04:05:57.051Z,1.00
2017-12-09T04:08:23.712Z,1.00
2017-12-09T04:10:50.164Z,1.20
2017-12-09T04:13:17.360Z,1.10
2017-12-09T04:15:43.820Z,1.00
2017-12-09T04:18:10.747Z,1.20
2017-12-09T04:20:37.839Z,1.20
2017-12-09T04:23:04.932Z,1.20
2017-12-09T04:25:31.582Z,1.20
2017-12-09T04:28:00.159Z,1.10
2017-12-09T04:30:26.488Z,1.00
2017-12-09T04:32:52.935Z,1.00
2017-12-09T04:35:19.670Z,0.90
2017-12-09T04:37:46.448Z,1.00
2017-12-09T04:40:14.457Z,0.90
2017-12-09T04:42:41.624Z,0.90
2017-12-09T04:45:08.231Z,0.70
2017-12-09T04:47:36.024Z,0.70
2017-12-09T04:50:02.566Z,0.60
2017-12-09T04:52:32.967Z,0.50
2017-12-09T04:54:59.506Z,0.50
2017-12-09T04:57:28.663Z,0.40
2017-12-09T04:59:55.282Z,0.30
2017-12-09T05:02:24.213Z,0.10
2017-12-09T05:04:50.690Z,0.10
2017-12-09T05:07:18.968Z,0.00
2017-12-09T05:09:45.578Z,0.00
2017-12-09T05:12:12.020Z,0.00
2017-12-09T05:14:39.387Z,0.00
2017-12-09T05:17:06.002Z,0.00
2017-12-09T05:19:32.491Z,0.00
2017-12-09T05:22:02.213Z,-0.10
2017-12-09T05:24:28.760Z,-0.10
2017-12-09T05:26:55.891Z,0.00
2017-12-09T05:29:24.682Z,0.00
2017-12-09T05:31:52.489Z,-0.10
2017-12-09T05:34:19.244Z,-0.10
2017-12-09T05:36:45.932Z,-0.10
2017-12-09T05:39:12.502Z,-0.20
2017-12-09T05:41:39.872Z,-0.30
2017-12-09T05:44:07.816Z,-0.40
2017-12-09T05:46:34.296Z,-0.40
2017-12-09T05:49:00.780Z,-0.40
2017-12-09T05:51:27.409Z,-0.30
2017-12-09T05:53:53.810Z,-0.40
2017-12-09T05:56:20.236Z,-0.50
2017-12-09T05:58:48.050Z,-0.40
2017-12-09T06:01:14.445Z,-0.30
2017-12-09T06:03:41.759Z,-0.30
2017-12-09T06:06:09.030Z,-0.40
2017-12-09T06:08:36.451Z,-0.40
2017-12-09T06:11:04.305Z,-0.40
2017-12-09T06:13:31.357Z,-0.30
2017-12-09T06:15:57.762Z,-0.30
2017-12-09T06:18:27.622Z,-0.40
2017-12-09T06:20:54.914Z,-0.40
2017-12-09T06:23:22.686Z,-0.40
2017-12-09T06:25:49.100Z,-0.40
2017-12-09T06:28:15.642Z,-0.30
2017-12-09T06:30:42.142Z,-0.40
2017-12-09T06:33:09.572Z,-0.70
2017-12-09T06:35:37.841Z,-0.70
2017-12-09T06:38:04.279Z,-0.80
2017-12-09T06:40:30.890Z,-0.70
2017-12-09T06:42:57.544Z,-0.70
2017-12-09T06:45:24.360Z,-0.80
2017-12-09T06:47:50.860Z,-1.00
2017-12-09T06:50:17.522Z,-1.00
2017-12-09T06:52:43.992Z,-1.10
2017-12-09T06:55:12.051Z,-1.20
2017-12-09T06:57:38.761Z,-1.20
2017-12-09T07:00:05.602Z,-1.00
2017-12-09T07:02:33.142Z,-0.90
2017-12-09T07:04:59.972Z,-0.90
2017-12-09T07:07:27.309Z,-0.40
2017-12-09T07:09:55.473Z,-0.40
2017-12-09T07:12:23.400Z,-0.10
2017-12-09T07:14:50.192Z,0.10
2017-12-09T07:17:17.475Z,0.40
2017-12-09T07:19:44.751Z,0.40
2017-12-09T07:22:11.452Z,0.40
2017-12-09T07:24:39.241Z,0.40
2017-12-09T07:27:05.863Z,0.60
2017-12-09T07:29:33.332Z,0.70
2017-12-09T07:31:59.859Z,0.70
2017-12-09T07:34:27.262Z,0.60
2017-12-09T07:36:55.652Z,0.70
2017-12-09T07:39:22.381Z,0.70
2017-12-09T07:41:49.242Z,0.50
2017-12-09T07:44:15.961Z,0.70
2017-12-09T07:46:43.848Z,0.70
2017-12-09T07:49:11.282Z,0.50
2017-12-09T07:51:37.812Z,0.50
2017-12-09T07:54:04.622Z,0.50
2017-12-09T07:56:31.231Z,0.60
2017-12-09T07:58:59.434Z,0.80
2017-12-09T08:01:26.242Z,1.10
2017-12-09T08:03:52.762Z,2.00
2017-12-09T08:06:20.352Z,3.10
2017-12-09T08:08:46.969Z,3.90
2017-12-09T08:11:14.267Z,3.60
2017-12-09T08:13:41.392Z,3.60
2017-12-09T08:16:08.242Z,3.30
2017-12-09T08:18:34.972Z,3.00
2017-12-09T08:21:02.163Z,2.90
2017-12-09T08:23:29.772Z,2.60
2017-12-09T08:25:56.573Z,2.50
2017-12-09T08:28:23.402Z,2.30
2017-12-09T08:30:50.362Z,2.40
2017-12-09T08:33:16.911Z,2.30
2017-12-09T08:35:44.473Z,2.30
2017-12-09T08:38:12.992Z,2.40
2017-12-09T08:40:40.622Z,2.50
2017-12-09T08:43:07.310Z,2.50
2017-12-09T08:45:34.071Z,2.70
2017-12-09T08:48:04.122Z,2.90
2017-12-09T08:50:31.708Z,3.20
2017-12-09T08:52:58.261Z,3.50
2017-12-09T08:55:25.012Z,3.50
2017-12-09T08:57:52.522Z,3.80
2017-12-09T09:00:19.982Z,4.00
2017-12-09T09:02:46.676Z,4.00
2017-12-09T09:05:13.402Z,4.00
2017-12-09T09:07:40.102Z,3.90
2017-12-09T09:10:07.402Z,3.90
2017-12-09T09:12:34.287Z,3.90
2017-12-09T09:15:01.070Z,3.90
2017-12-09T09:17:27.781Z,3.80
2017-12-09T09:19:54.312Z,3.70
2017-12-09T09:22:21.091Z,3.60
2017-12-09T09:24:47.582Z,3.50
2017-12-09T09:27:13.815Z,3.40
2017-12-09T09:29:43.211Z,3.40
2017-12-09T09:32:10.059Z,3.50
2017-12-09T09:34:36.772Z,3.40
2017-12-09T09:37:04.292Z,3.50
2017-12-09T09:39:31.071Z,3.60
2017-12-09T09:41:58.032Z,3.70
2017-12-09T09:44:26.471Z,4.00
2017-12-09T09:46:53.573Z,4.50
2017-12-09T09:49:20.922Z,4.70
2017-12-09T09:51:47.871Z,4.70
2017-12-09T09:54:14.311Z,5.00
2017-12-09T09:56:41.082Z,5.40
2017-12-09T09:59:08.782Z,5.80
2017-12-09T10:01:35.221Z,5.80
2017-12-09T10:04:01.583Z,5.80
2017-12-09T10:06:28.126Z,5.60
2017-12-09T10:08:54.421Z,5.40
2017-12-09T10:11:20.995Z,5.30
2017-12-09T10:13:48.520Z,5.30
2017-12-09T10:16:15.117Z,5.40
2017-12-09T10:18:42.642Z,5.40
2017-12-09T10:21:10.603Z,5.40
2017-12-09T10:23:37.273Z,5.40
2017-12-09T10:26:04.391Z,5.70
2017-12-09T10:28:33.321Z,5.70
2017-12-09T10:30:59.812Z,5.90
2017-12-09T10:33:26.601Z,6.00
2017-12-09T10:35:53.261Z,6.00
2017-12-09T10:38:19.800Z,6.10
2017-12-09T10:40:47.392Z,6.10
2017-12-09T10:43:14.921Z,6.00
2017-12-09T10:45:41.651Z,5.70
2017-12-09T10:48:08.502Z,5.50
2017-12-09T10:50:35.336Z,5.30
2017-12-09T10:53:02.171Z,5.20
2017-12-09T10:55:28.791Z,5.00
2017-12-09T10:57:56.483Z,5.00
2017-12-09T11:00:23.218Z,4.90
2017-12-09T11:02:49.792Z,4.90
2017-12-09T11:05:16.530Z,4.90
2017-12-09T11:07:44.144Z,5.20
2017-12-09T11:10:10.455Z,5.20
2017-12-09T11:12:38.472Z,5.20
2017-12-09T11:15:07.700Z,5.70
2017-12-09T11:17:36.671Z,5.70
2017-12-09T11:20:04.241Z,5.70
2017-12-09T11:22:31.255Z,5.60
2017-12-09T11:24:58.102Z,5.60
2017-12-09T11:27:24.842Z,5.40
2017-12-09T11:29:52.869Z,5.40
2017-12-09T11:32:19.633Z,5.10
2017-12-09T11:34:46.392Z,4.90
2017-12-09T11:37:12.767Z,4.80
2017-12-09T11:39:39.130Z,4.80
2017-12-09T11:42:05.902Z,4.70
2017-12-09T11:44:33.647Z,4.70
2017-12-09T11:47:00.142Z,4.80
2017-12-09T11:49:27.401Z,4.80
2017-12-09T11:51:53.863Z,4.80
2017-12-09T11:54:20.922Z,4.90
2017-12-09T11:56:47.442Z,4.90
2017-12-09T11:59:13.902Z,4.90
2017-12-09T12:01:40.492Z,5.00
2017-12-09T12:04:07.278Z,5.10
2017-12-09T12:06:33.590Z,5.00
2017-12-09T12:09:00.827Z,5.00
2017-12-09T12:11:28.551Z,5.00
2017-12-09T12:13:55.734Z,5.00
2017-12-09T12:16:22.174Z,4.90
2017-12-09T12:18:50.527Z,4.90
2017-12-09T12:21:17.271Z,4.90
2017-12-09T12:23:43.700Z,4.80
2017-12-09T12:26:11.061Z,4.70
2017-12-09T12:28:38.580Z,4.60
2017-12-09T12:31:05.768Z,4.50
2017-12-09T12:33:32.328Z,4.40
2017-12-09T12:35:58.949Z,4.40
2017-12-09T12:38:25.369Z,4.40
2017-12-09T12:40:55.078Z,4.40
2017-12-09T12:43:21.680Z,4.40
2017-12-09T12:45:48.015Z,4.40
2017-12-09T12:48:14.639Z,4.40
2017-12-09T12:50:42.155Z,4.60
2017-12-09T12:53:11.061Z,4.60
2017-12-09T12:55:40.469Z,4.60
2017-12-09T12:58:08.411Z,4.60
2017-12-09T13:00:36.039Z,4.60
2017-12-09T13:03:02.588Z,4.60
2017-12-09T13:05:29.308Z,4.50
2017-12-09T13:07:57.099Z,4.40
2017-12-09T13:10:23.595Z,4.20
2017-12-09T13:12:51.309Z,4.10
2017-12-09T13:15:17.967Z,4.10
2017-12-09T13:17:44.759Z,4.00
2017-12-09T13:20:11.409Z,3.90
2017-12-09T13:22:37.951Z,3.90
2017-12-09T13:25:04.363Z,3.80
2017-12-09T13:27:31.859Z,3.70
2017-12-09T13:29:58.309Z,3.70
2017-12-09T13:32:26.850Z,3.60
2017-12-09T13:34:53.609Z,3.60
2017-12-09T13:37:20.838Z,3.50
2017-12-09T13:39:48.729Z,3.30
2017-12-09T13:42:15.229Z,3.20
2017-12-09T13:44:41.701Z,3.20
2017-12-09T13:47:09.692Z,3.10
2017-12-09T13:49:37.560Z,3.00
2017-12-09T13:52:04.229Z,3.00
2017-12-09T13:54:31.959Z,3.10
2017-12-09T13:56:58.754Z,3.10
2017-12-09T13:59:25.428Z,3.10
2017-12-09T14:01:52.659Z,2.90
2017-12-09T14:04:20.170Z,2.80
2017-12-09T14:06:47.559Z,2.80
2017-12-09T14:09:15.569Z,2.80
2017-12-09T14:11:42.764Z,2.90
2017-12-09T14:14:09.208Z,2.90
2017-12-09T14:16:36.648Z,2.90
2017-12-09T14:19:04.497Z,3.10
2017-12-09T14:21:31.088Z,3.10
2017-12-09T14:23:58.169Z,3.00
2017-12-09T14:26:24.727Z,3.00
2017-12-09T14:28:51.347Z,3.00
2017-12-09T14:31:17.916Z,3.20
2017-12-09T14:33:44.829Z,3.30
2017-12-09T14:36:12.355Z,3.40
2017-12-09T14:38:39.738Z,3.40
2017-12-09T14:41:06.370Z,3.40
2017-12-09T14:43:32.969Z,3.40
2017-12-09T14:46:00.189Z,3.50
2017-12-09T14:48:27.735Z,3.40
2017-12-09T14:50:54.351Z,3.40
2017-12-09T14:53:21.800Z,3.20
2017-12-09T14:55:48.411Z,3.20
2017-12-09T14:58:17.600Z,3.30
2017-12-09T15:00:45.030Z,3.40
2017-12-09T15:03:12.610Z,3.30
2017-12-09T15:05:39.199Z,3.30
2017-12-09T15:08:05.711Z,3.40
2017-12-09T15:10:32.056Z,3.30
2017-12-09T15:12:59.728Z,3.40
2017-12-09T15:15:27.250Z,3.30
2017-12-09T15:17:55.500Z,3.20
2017-12-09T15:20:22.170Z,3.20
2017-12-09T15:22:49.750Z,3.30
2017-12-09T15:25:16.054Z,3.20
2017-12-09T15:27:44.670Z,3.20
2017-12-09T15:30:11.170Z,3.20
2017-12-09T15:32:38.860Z,3.10
2017-12-09T15:35:09.621Z,3.00
2017-12-09T15:37:37.378Z,3.00
2017-12-09T15:40:03.911Z,3.00
2017-12-09T15:42:30.800Z,2.90
2017-12-09T15:44:58.508Z,3.00
2017-12-09T15:47:26.784Z,3.00
2017-12-09T15:49:53.488Z,3.00
2017-12-09T15:52:21.710Z,3.00
2017-12-09T15:54:48.620Z,3.00
2017-12-09T15:57:15.400Z,2.90
2017-12-09T15:59:42.320Z,2.80
2017-12-09T16:02:08.808Z,2.90
2017-12-09T16:04:36.059Z,2.80
2017-12-09T16:07:02.689Z,2.80
2017-12-09T16:09:30.663Z,2.60
2017-12-09T16:11:58.230Z,2.60
2017-12-09T16:14:25.457Z,2.60
2017-12-09T16:16:52.731Z,2.60
2017-12-09T16:19:20.010Z,2.60
2017-12-09T16:21:46.820Z,2.60
2017-12-09T16:24:14.659Z,2.60
2017-12-09T16:26:42.234Z,2.80
2017-12-09T16:29:09.534Z,2.80
2017-12-09T16:31:36.179Z,2.80
2017-12-09T16:34:05.606Z,2.80
2017-12-09T16:36:33.199Z,2.80
2017-12-09T16:39:03.410Z,2.80
2017-12-09T16:41:30.960Z,2.90
2017-12-09T16:43:58.800Z,2.80
2017-12-09T16:46:25.757Z,2.80
2017-12-09T16:48:52.956Z,3.00
2017-12-09T16:51:19.787Z,3.00
2017-12-09T16:53:48.384Z,2.90
2017-12-09T16:56:15.090Z,3.00
2017-12-09T16:58:42.739Z,2.90
2017-12-09T17:01:09.970Z,2.80
2017-12-09T17:03:36.690Z,2.80
2017-12-09T17:06:04.339Z,2.80
2017-12-09T17:08:30.970Z,2.70
2017-12-09T17:10:57.850Z,2.50
2017-12-09T17:13:25.870Z,2.40
2017-12-09T17:15:52.318Z,2.50
2017-12-09T17:18:19.769Z,2.50
2017-12-09T17:20:46.449Z,2.60
2017-12-09T17:23:13.030Z,2.60
2017-12-09T17:25:39.927Z,2.50
2017-12-09T17:28:06.760Z,2.70
2017-12-09T17:30:33.621Z,2.80
2017-12-09T17:33:00.266Z,2.80
2017-12-09T17:35:27.739Z,2.60
2017-12-09T17:37:54.530Z,2.60
2017-12-09T17:40:21.759Z,2.70
2017-12-09T17:42:48.518Z,2.70
2017-12-09T17:45:15.637Z,2.70
2017-12-09T17:47:43.044Z,2.60
2017-12-09T17:50:10.380Z,2.60
2017-12-09T17:52:36.758Z,2.50
2017-12-09T17:55:03.230Z,2.50
2017-12-09T17:57:30.921Z,2.50
2017-12-09T17:59:59.427Z,2.60
2017-12-09T18:02:27.259Z,2.50
2017-12-09T18:04:53.850Z,2.60
2017-12-09T18:07:21.019Z,2.40
2017-12-09T18:09:48.368Z,2.40
2017-12-09T18:12:15.691Z,2.50
2017-12-09T18:14:42.159Z,2.60
2017-12-09T18:17:08.672Z,2.60
2017-12-09T18:19:38.059Z,2.70
2017-12-09T18:22:04.919Z,2.60
2017-12-09T18:24:32.233Z,2.50
2017-12-09T18:26:59.643Z,2.60
2017-12-09T18:29:26.359Z,2.60
2017-12-09T18:31:54.737Z,2.50
2017-12-09T18:34:21.440Z,2.50
2017-12-09T18:36:48.636Z,2.50
2017-12-09T18:39:15.912Z,2.50
2017-12-09T18:41:42.706Z,2.60
2017-12-09T18:44:09.071Z,2.60
2017-12-09T18:46:38.548Z,2.60
2017-12-09T18:49:05.022Z,2.60
2017-12-09T18:51:32.028Z,2.50
2017-12-09T18:53:58.518Z,2.50
2017-12-09T18:56:27.317Z,2.40
2017-12-09T18:58:54.538Z,2.30
2017-12-09T19:01:21.068Z,2.30
2017-12-09T19:03:48.526Z,2.30
2017-12-09T19:06:15.198Z,2.30
2017-12-09T19:08:41.749Z,2.30
2017-12-09T19:11:09.328Z,2.30
2017-12-09T19:13:36.008Z,2.30
2017-12-09T19:16:03.283Z,2.20
2017-12-09T19:18:29.949Z,2.20
2017-12-09T19:20:56.382Z,2.20
2017-12-09T19:23:22.988Z,2.20
2017-12-09T19:25:49.404Z,2.20
2017-12-09T19:28:17.008Z,2.30
2017-12-09T19:30:43.618Z,2.20
2017-12-09T19:33:10.168Z,2.30
2017-12-09T19:35:37.608Z,2.20
2017-12-09T19:38:05.169Z,2.20
2017-12-09T19:40:32.488Z,2.20
2017-12-09T19:43:00.580Z,2.10
2017-12-09T19:45:28.461Z,2.10
2017-12-09T19:47:56.431Z,2.00
2017-12-09T19:50:25.749Z,2.00
2017-12-09T19:52:52.468Z,2.10
2017-12-09T19:55:18.826Z,2.20
2017-12-09T19:57:46.078Z,2.10
2017-12-09T20:00:14.738Z,2.10
2017-12-09T20:02:41.108Z,2.20
2017-12-09T20:05:07.821Z,2.10
2017-12-09T20:07:34.328Z,2.10
2017-12-09T20:10:01.377Z,2.10
2017-12-09T20:12:29.708Z,2.20
2017-12-09T20:14:56.324Z,2.20
2017-12-09T20:17:23.688Z,2.30
2017-12-09T20:19:50.288Z,2.30
2017-12-09T20:22:17.918Z,2.40
2017-12-09T20:24:45.198Z,2.40
2017-12-09T20:27:11.799Z,2.30
2017-12-09T20:29:39.508Z,2.40
2017-12-09T20:32:06.598Z,2.40
2017-12-09T20:34:33.240Z,2.40
2017-12-09T20:37:01.370Z,2.40
2017-12-09T20:39:27.904Z,2.30
2017-12-09T20:41:54.248Z,2.40
2017-12-09T20:44:20.992Z,2.40
2017-12-09T20:46:47.526Z,2.40
2017-12-09T20:49:14.278Z,2.40
2017-12-09T20:51:40.612Z,2.40
2017-12-09T20:54:06.938Z,2.50
2017-12-09T20:56:34.097Z,2.60
2017-12-09T20:59:00.598Z,2.60
2017-12-09T21:01:26.936Z,2.40
2017-12-09T21:03:53.408Z,2.40
2017-12-09T21:06:20.478Z,2.50
2017-12-09T21:08:47.507Z,2.50
2017-12-09T21:11:14.726Z,2.50
2017-12-09T21:13:41.076Z,2.50
2017-12-09T21:16:08.298Z,2.80
2017-12-09T21:18:34.798Z,2.70
2017-12-09T21:21:01.270Z,2.70
2017-12-09T21:23:27.667Z,2.70
2017-12-09T21:25:54.018Z,2.60
2017-12-09T21:28:20.496Z,2.60
2017-12-09T21:30:47.579Z,2.50
2017-12-09T21:33:14.108Z,2.50
2017-12-09T21:35:40.470Z,2.60
2017-12-09T21:38:06.688Z,2.50
2017-12-09T21:40:33.002Z,2.50
2017-12-09T21:42:59.199Z,2.50
2017-12-09T21:45:25.408Z,2.60
2017-12-09T21:47:52.524Z,2.60
2017-12-09T21:50:18.726Z,2.50
2017-12-09T21:52:44.935Z,2.60
2017-12-09T21:55:11.138Z,2.50
2017-12-09T21:57:38.065Z,2.40
2017-12-09T22:00:04.302Z,2.40
2017-12-09T22:02:31.258Z,2.50
2017-12-09T22:04:58.234Z,2.50
2017-12-09T22:07:24.439Z,2.40
2017-12-09T22:09:50.654Z,2.50
2017-12-09T22:12:17.614Z,2.70
2017-12-09T22:14:43.839Z,2.70
2017-12-09T22:17:10.048Z,2.60
2017-12-09T22:19:37.039Z,2.50
2017-12-09T22:22:03.274Z,2.50
2017-12-09T22:24:29.474Z,2.60
2017-12-09T22:26:55.697Z,2.60
2017-12-09T22:29:22.012Z,2.60
2017-12-09T22:31:49.034Z,2.80
2017-12-09T22:34:15.225Z,2.70
2017-12-09T22:36:41.471Z,2.60
2017-12-09T22:39:07.648Z,2.60
2017-12-09T22:41:33.855Z,2.60
2017-12-09T22:44:00.070Z,2.60
2017-12-09T22:46:26.260Z,2.60
2017-12-09T22:48:52.436Z,2.70
2017-12-09T22:51:19.456Z,2.60
2017-12-09T22:53:45.659Z,2.60
2017-12-09T22:56:11.916Z,2.50
2017-12-09T22:58:38.086Z,2.50
2017-12-09T23:01:04.275Z,2.50
2017-12-09T23:03:30.653Z,2.50
2017-12-09T23:05:56.874Z,2.40
2017-12-09T23:08:23.095Z,2.60
2017-12-09T23:10:49.296Z,2.60
2017-12-09T23:13:16.275Z,2.40
2017-12-09T23:15:42.467Z,2.40
2017-12-09T23:18:09.429Z,2.40
2017-12-09T23:20:35.662Z,2.40
2017-12-09T23:23:01.882Z,2.40
2017-12-09T23:25:28.100Z,2.20
2017-12-09T23:27:55.048Z,2.10
2017-12-09T23:30:22.233Z,2.20
2017-12-09T23:32:48.442Z,2.20
2017-12-09T23:35:14.654Z,2.30
2017-12-09T23:37:40.858Z,2.30
2017-12-09T23:40:08.645Z,2.30
2017-12-09T23:42:34.886Z,2.30
2017-12-09T23:45:01.279Z,2.30
2017-12-09T23:47:27.628Z,2.30
2017-12-09T23:49:54.759Z,2.20
2017-12-09T23:52:22.441Z,2.20
2017-12-09T23:54:48.615Z,2.10
2017-12-09T23:57:15.051Z,2.20
2017-12-09T23:59:41.215Z,2.20
